createdAt,value
2023-05-01T00:00:05.687Z,98910.47
2023-05-01T00:02:11.504Z,98905.41
2023-05-01T00:04:17.699Z,98905.31
2023-05-01T00:06:23.012Z,98905.25
2023-05-01T00:08:30.740Z,98910.19
2023-05-01T00:10:38.541Z,98907.72
2023-05-01T00:12:43.536Z,98900.19
2023-05-01T00:14:48.685Z,98898.44
2023-05-01T00:16:53.740Z,98902.44
2023-05-01T00:18:59.073Z,98895.78
2023-05-01T00:21:04.379Z,98899.06
2023-05-01T00:23:09.417Z,98889.84
2023-05-01T00:25:17.201Z,98895.66
2023-05-01T00:27:22.235Z,98885.66
2023-05-01T00:29:28.314Z,98884.84
2023-05-01T00:31:33.407Z,98886.38
2023-05-01T00:33:38.463Z,98884.78
2023-05-01T00:35:46.344Z,98883.09
2023-05-01T00:37:51.570Z,98881.41
2023-05-01T00:39:56.967Z,98878.13
2023-05-01T00:42:05.117Z,98876.53
2023-05-01T00:44:10.278Z,98873.25
2023-05-01T00:46:15.592Z,98873.28
2023-05-01T00:48:20.861Z,98868.28
2023-05-01T00:50:26.091Z,98868.41
2023-05-01T00:52:31.444Z,98862.59
2023-05-01T00:54:36.894Z,98867.66
2023-05-01T00:56:42.072Z,98863.53
2023-05-01T00:58:52.854Z,98861.25
2023-05-01T01:00:58.313Z,98851.22
2023-05-01T01:03:04.683Z,98850.44
2023-05-01T01:05:10.593Z,98843.78
2023-05-01T01:07:25.219Z,98840.50
2023-05-01T01:09:45.423Z,98842.25
2023-05-01T01:12:00.508Z,98841.41
2023-05-01T01:14:17.793Z,98832.16
2023-05-01T01:16:31.007Z,98827.19
2023-05-01T01:18:43.266Z,98828.03
2023-05-01T01:20:53.288Z,98823.09
2023-05-01T01:23:34.293Z,98826.50
2023-05-01T01:26:34.466Z,98819.16
2023-05-01T01:29:18.653Z,98818.31
2023-05-01T01:31:24.656Z,98807.53
2023-05-01T01:34:04.333Z,98807.53
2023-05-01T01:36:18.622Z,98807.59
2023-05-01T01:38:28.927Z,98805.13
2023-05-01T01:40:41.582Z,98805.16
2023-05-01T01:42:54.445Z,98797.72
2023-05-01T01:45:05.102Z,98800.97
2023-05-01T01:47:15.665Z,98795.22
2023-05-01T01:49:28.116Z,98791.91
2023-05-01T01:51:34.287Z,98791.19
2023-05-01T01:53:40.985Z,98793.75
2023-05-01T01:55:48.473Z,98786.31
2023-05-01T01:57:55.303Z,98786.34
2023-05-01T02:00:01.596Z,98786.25
2023-05-01T02:02:08.231Z,98777.16
2023-05-01T02:04:16.199Z,98781.31
2023-05-01T02:06:26.378Z,98777.13
2023-05-01T02:08:33.648Z,98771.31
2023-05-01T02:10:40.752Z,98772.19
2023-05-01T02:12:50.925Z,98770.50
2023-05-01T02:14:57.487Z,98774.66
2023-05-01T02:17:04.096Z,98770.53
2023-05-01T02:19:09.592Z,98768.03
2023-05-01T02:21:16.277Z,98766.41
2023-05-01T02:23:24.886Z,98773.06
2023-05-01T02:25:33.428Z,98763.13
2023-05-01T02:27:46.904Z,98761.50
2023-05-01T02:29:52.172Z,98760.69
2023-05-01T02:31:57.654Z,98757.41
2023-05-01T02:34:02.810Z,98745.78
2023-05-01T02:36:09.288Z,98754.13
2023-05-01T02:38:15.138Z,98754.16
2023-05-01T02:40:23.250Z,98745.00
2023-05-01T02:42:31.100Z,98747.50
2023-05-01T02:44:43.777Z,98749.97
2023-05-01T02:46:51.708Z,98742.47
2023-05-01T02:48:57.795Z,98745.00
2023-05-01T02:51:04.450Z,98743.34
2023-05-01T02:53:10.314Z,98737.50
2023-05-01T02:55:30.024Z,98731.69
2023-05-01T02:57:36.763Z,98732.50
2023-05-01T02:59:42.002Z,98727.50
2023-05-01T03:01:47.419Z,98740.00
2023-05-01T03:03:52.627Z,98736.69
2023-05-01T03:05:58.557Z,98735.84
2023-05-01T03:08:04.680Z,98734.16
2023-05-01T03:10:10.867Z,98730.00
2023-05-01T03:12:18.481Z,98731.69
2023-05-01T03:14:23.785Z,98723.38
2023-05-01T03:16:28.879Z,98726.72
2023-05-01T03:18:34.399Z,98717.56
2023-05-01T03:20:39.413Z,98718.44
2023-05-01T03:22:45.229Z,98722.63
2023-05-01T03:24:50.955Z,98727.56
2023-05-01T03:26:55.969Z,98733.38
2023-05-01T03:29:03.824Z,98726.72
2023-05-01T03:31:09.464Z,98729.25
2023-05-01T03:33:15.257Z,98723.44
2023-05-01T03:35:20.687Z,98722.63
2023-05-01T03:37:26.045Z,98716.00
2023-05-01T03:39:31.363Z,98720.97
2023-05-01T03:41:55.422Z,98718.47
2023-05-01T03:44:05.936Z,98709.31
2023-05-01T03:46:15.705Z,98718.47
2023-05-01T03:48:20.811Z,98718.47
2023-05-01T03:50:25.841Z,98725.06
2023-05-01T03:52:30.934Z,98725.13
2023-05-01T03:54:37.498Z,98719.28
2023-05-01T03:56:58.684Z,98714.28
2023-05-01T03:59:07.702Z,98713.47
2023-05-01T04:01:12.749Z,98715.97
2023-05-01T04:03:21.826Z,98716.00
2023-05-01T04:05:29.602Z,98722.69
2023-05-01T04:07:39.469Z,98716.06
2023-05-01T04:09:44.753Z,98719.38
2023-05-01T04:11:49.795Z,98718.56
2023-05-01T04:13:55.077Z,98716.88
2023-05-01T04:16:02.734Z,98716.09
2023-05-01T04:18:07.862Z,98725.16
2023-05-01T04:20:15.073Z,98727.69
2023-05-01T04:22:22.185Z,98725.22
2023-05-01T04:24:27.268Z,98725.19
2023-05-01T04:26:32.313Z,98721.06
2023-05-01T04:28:39.400Z,98724.38
2023-05-01T04:30:47.622Z,98720.19
2023-05-01T04:32:55.359Z,98726.00
2023-05-01T04:35:00.537Z,98716.84
2023-05-01T04:37:07.969Z,98717.66
2023-05-01T04:39:13.342Z,98725.16
2023-05-01T04:41:18.645Z,98716.84
2023-05-01T04:43:25.310Z,98720.97
2023-05-01T04:45:30.461Z,98709.28
2023-05-01T04:47:35.551Z,98715.88
2023-05-01T04:49:43.391Z,98715.81
2023-05-01T04:51:48.853Z,98724.06
2023-05-01T04:53:56.369Z,98715.69
2023-05-01T04:56:04.786Z,98719.81
2023-05-01T04:58:11.554Z,98716.44
2023-05-01T05:00:19.182Z,98724.69
2023-05-01T05:02:32.041Z,98717.97
2023-05-01T05:04:37.188Z,98721.22
2023-05-01T05:06:45.253Z,98722.78
2023-05-01T05:08:56.013Z,98724.31
2023-05-01T05:11:02.539Z,98720.91
2023-05-01T05:13:17.060Z,98722.47
2023-05-01T05:15:23.290Z,98717.38
2023-05-01T05:17:28.444Z,98723.81
2023-05-01T05:19:33.715Z,98723.63
2023-05-01T05:21:39.045Z,98713.41
2023-05-01T05:23:47.295Z,98721.63
2023-05-01T05:25:52.315Z,98717.91
2023-05-01T05:27:58.104Z,98717.00
2023-05-01T05:30:03.149Z,98716.94
2023-05-01T05:32:09.047Z,98714.28
2023-05-01T05:34:14.225Z,98710.75
2023-05-01T05:36:19.643Z,98703.03
2023-05-01T05:38:24.981Z,98706.34
2023-05-01T05:40:35.226Z,98702.13
2023-05-01T05:42:41.451Z,98703.03
2023-05-01T05:44:46.575Z,98701.19
2023-05-01T05:46:52.360Z,98703.34
2023-05-01T05:49:06.222Z,98699.94
2023-05-01T05:51:11.363Z,98699.88
2023-05-01T05:53:16.812Z,98694.78
2023-05-01T05:55:22.360Z,98697.19
2023-05-01T05:57:44.531Z,98689.56
2023-05-01T05:59:49.591Z,98697.59
2023-05-01T06:01:58.687Z,98688.38
2023-05-01T06:04:04.258Z,98688.97
2023-05-01T06:06:12.675Z,98688.91
2023-05-01T06:08:18.552Z,98683.78
2023-05-01T06:10:23.771Z,98685.16
2023-05-01T06:12:29.818Z,98684.97
2023-05-01T06:14:39.233Z,98689.81
2023-05-01T06:16:44.609Z,98684.38
2023-05-01T06:18:51.126Z,98682.38
2023-05-01T06:20:56.374Z,98677.38
2023-05-01T06:23:01.561Z,98685.56
2023-05-01T06:25:17.268Z,98673.44
2023-05-01T06:27:22.524Z,98678.19
2023-05-01T06:29:27.661Z,98677.53
2023-05-01T06:31:36.132Z,98677.19
2023-05-01T06:33:41.499Z,98675.16
2023-05-01T06:35:59.906Z,98674.13
2023-05-01T06:38:05.106Z,98668.63
2023-05-01T06:40:12.981Z,98669.72
2023-05-01T06:42:18.397Z,98668.72
2023-05-01T06:44:24.093Z,98667.91
2023-05-01T06:46:29.180Z,98661.16
2023-05-01T06:48:37.099Z,98667.03
2023-05-01T06:50:42.270Z,98668.09
2023-05-01T06:52:47.297Z,98661.66
2023-05-01T06:54:52.356Z,98675.63
2023-05-01T06:56:57.840Z,98671.56
2023-05-01T06:59:03.501Z,98665.97
2023-05-01T07:01:08.670Z,98667.09
2023-05-01T07:03:13.813Z,98665.44
2023-05-01T07:05:22.493Z,98665.16
2023-05-01T07:07:27.495Z,98664.03
2023-05-01T07:09:33.204Z,98660.69
2023-05-01T07:11:38.462Z,98650.94
2023-05-01T07:13:43.478Z,98652.91
2023-05-01T07:15:48.975Z,98655.19
2023-05-01T07:17:54.094Z,98656.09
2023-05-01T07:19:59.685Z,98644.50
2023-05-01T07:22:07.321Z,98649.28
2023-05-01T07:24:12.792Z,98646.50
2023-05-01T07:26:17.910Z,98641.56
2023-05-01T07:28:23.087Z,98645.31
2023-05-01T07:30:30.544Z,98644.41
2023-05-01T07:32:35.636Z,98640.00
2023-05-01T07:34:40.956Z,98628.59
2023-05-01T07:36:46.031Z,98632.59
2023-05-01T07:38:54.008Z,98635.06
2023-05-01T07:40:59.194Z,98624.69
2023-05-01T07:43:04.432Z,98626.94
2023-05-01T07:45:11.583Z,98618.50
2023-05-01T07:47:16.637Z,98618.94
2023-05-01T07:49:21.882Z,98615.31
2023-05-01T07:51:27.080Z,98612.31
2023-05-01T07:53:33.263Z,98608.22
2023-05-01T07:55:41.800Z,98603.13
2023-05-01T07:57:46.897Z,98606.31
2023-05-01T07:59:51.949Z,98606.72
2023-05-01T08:01:57.124Z,98599.06
2023-05-01T08:04:02.365Z,98600.00
2023-05-01T08:06:08.618Z,98603.88
2023-05-01T08:08:20.657Z,98595.78
2023-05-01T08:10:26.208Z,98600.97
2023-05-01T08:12:34.396Z,98589.31
2023-05-01T08:14:39.437Z,98589.69
2023-05-01T08:16:44.654Z,98588.06
2023-05-01T08:18:49.819Z,98596.13
2023-05-01T08:20:54.823Z,98588.19
2023-05-01T08:22:59.827Z,98585.88
2023-05-01T08:25:04.893Z,98594.06
2023-05-01T08:27:09.930Z,98581.97
2023-05-01T08:29:17.684Z,98582.09
2023-05-01T08:31:25.189Z,98598.25
2023-05-01T08:33:30.316Z,98586.41
2023-05-01T08:35:35.376Z,98582.09
2023-05-01T08:37:40.804Z,98587.19
2023-05-01T08:39:45.834Z,98585.59
2023-05-01T08:41:51.033Z,98579.34
2023-05-01T08:43:56.248Z,98578.38
2023-05-01T08:46:05.121Z,98572.81
2023-05-01T08:48:11.786Z,98568.56
2023-05-01T08:50:19.269Z,98573.38
2023-05-01T08:52:27.099Z,98568.22
2023-05-01T08:54:34.006Z,98571.81
2023-05-01T08:56:39.862Z,98566.16
2023-05-01T08:58:46.680Z,98563.78
2023-05-01T09:00:52.102Z,98560.13
2023-05-01T09:03:03.816Z,98561.88
2023-05-01T09:05:10.168Z,98559.72
2023-05-01T09:07:15.746Z,98552.59
2023-05-01T09:09:20.772Z,98556.41
2023-05-01T09:11:27.035Z,98554.34
2023-05-01T09:13:32.255Z,98550.69
2023-05-01T09:15:37.374Z,98543.13
2023-05-01T09:17:45.150Z,98543.34
2023-05-01T09:19:53.819Z,98554.28
2023-05-01T09:21:59.366Z,98548.66
2023-05-01T09:24:05.055Z,98546.38
2023-05-01T09:26:10.957Z,98543.50
2023-05-01T09:28:16.060Z,98535.69
2023-05-01T09:30:34.573Z,98533.66
2023-05-01T09:32:42.467Z,98535.50
2023-05-01T09:34:48.070Z,98533.06
2023-05-01T09:36:56.490Z,98528.53
2023-05-01T09:39:02.405Z,98529.28
2023-05-01T09:41:08.384Z,98520.59
2023-05-01T09:43:13.553Z,98523.03
2023-05-01T09:45:21.525Z,98531.22
2023-05-01T09:47:28.089Z,98522.44
2023-05-01T09:49:49.976Z,98524.47
2023-05-01T09:52:14.915Z,98518.97
2023-05-01T09:54:22.696Z,98519.28
2023-05-01T09:56:29.644Z,98517.75
2023-05-01T09:58:35.008Z,98510.00
2023-05-01T10:00:52.122Z,98516.66
2023-05-01T10:02:57.746Z,98513.56
2023-05-01T10:05:03.540Z,98512.47
2023-05-01T10:07:18.513Z,98515.47
2023-05-01T10:09:32.510Z,98509.97
2023-05-01T10:11:52.549Z,98517.72
2023-05-01T10:14:10.358Z,98517.94
2023-05-01T10:16:33.900Z,98512.34
2023-05-01T10:18:39.253Z,98508.88
2023-05-01T10:20:44.288Z,98511.47
2023-05-01T10:22:52.356Z,98511.00
2023-05-01T10:24:59.444Z,98502.66
2023-05-01T10:27:05.835Z,98501.44
2023-05-01T10:29:12.513Z,98497.38
2023-05-01T10:31:18.170Z,98511.25
2023-05-01T10:33:23.553Z,98506.34
2023-05-01T10:35:35.705Z,98507.38
2023-05-01T10:37:49.305Z,98503.47
2023-05-01T10:39:56.968Z,98503.16
2023-05-01T10:42:11.148Z,98500.84
2023-05-01T10:44:23.987Z,98507.91
2023-05-01T10:46:35.095Z,98500.03
2023-05-01T10:48:58.950Z,98496.16
2023-05-01T10:51:15.589Z,98504.56
2023-05-01T10:53:21.283Z,98496.94
2023-05-01T10:55:39.401Z,98492.69
2023-05-01T10:57:47.860Z,98490.47
2023-05-01T11:00:14.821Z,98482.44
2023-05-01T11:02:26.530Z,98488.06
2023-05-01T11:04:54.412Z,98483.44
2023-05-01T11:07:18.531Z,98482.13
2023-05-01T11:09:42.687Z,98482.56
2023-05-01T11:11:56.258Z,98482.03
2023-05-01T11:14:03.513Z,98484.63
2023-05-01T11:16:43.815Z,98484.97
2023-05-01T11:18:49.816Z,98489.84
2023-05-01T11:20:54.921Z,98481.91
2023-05-01T11:23:01.350Z,98479.19
2023-05-01T11:25:20.721Z,98473.94
2023-05-01T11:27:29.680Z,98470.06
2023-05-01T11:29:36.621Z,98477.47
2023-05-01T11:31:42.551Z,98485.06
2023-05-01T11:33:47.975Z,98488.00
2023-05-01T11:36:02.064Z,98482.72
2023-05-01T11:38:07.149Z,98485.78
2023-05-01T11:40:24.248Z,98480.94
2023-05-01T11:42:31.895Z,98486.06
2023-05-01T11:44:37.692Z,98476.34
2023-05-01T11:46:42.729Z,98476.25
2023-05-01T11:48:52.390Z,98474.72
2023-05-01T11:50:57.447Z,98479.50
2023-05-01T11:53:02.516Z,98478.50
2023-05-01T11:55:08.854Z,98471.84
2023-05-01T11:57:14.236Z,98482.13
2023-05-01T11:59:22.499Z,98473.41
2023-05-01T12:01:38.157Z,98481.34
2023-05-01T12:03:47.716Z,98477.78
2023-05-01T12:05:52.870Z,98467.88
2023-05-01T12:08:14.075Z,98476.66
2023-05-01T12:10:20.952Z,98473.69
2023-05-01T12:12:26.561Z,98476.84
2023-05-01T12:14:34.813Z,98472.78
2023-05-01T12:16:40.997Z,98475.44
2023-05-01T12:18:46.277Z,98467.47
2023-05-01T12:20:53.356Z,98473.81
2023-05-01T12:22:58.756Z,98478.91
2023-05-01T12:25:04.549Z,98470.13
2023-05-01T12:27:10.142Z,98470.00
2023-05-01T12:29:15.941Z,98463.88
2023-05-01T12:31:24.245Z,98472.56
2023-05-01T12:33:29.886Z,98477.84
2023-05-01T12:35:35.289Z,98474.78
2023-05-01T12:37:41.199Z,98474.78
2023-05-01T12:39:47.273Z,98460.50
2023-05-01T12:41:53.164Z,98465.63
2023-05-01T12:43:58.177Z,98466.44
2023-05-01T12:46:04.065Z,98458.47
2023-05-01T12:48:17.128Z,98473.28
2023-05-01T12:50:23.587Z,98469.91
2023-05-01T12:52:30.286Z,98467.03
2023-05-01T12:54:38.247Z,98458.25
2023-05-01T12:56:43.272Z,98459.66
2023-05-01T12:58:48.398Z,98461.00
2023-05-01T13:00:56.217Z,98459.59
2023-05-01T13:03:08.529Z,98466.91
2023-05-01T13:05:16.322Z,98462.41
2023-05-01T13:07:23.065Z,98465.88
2023-05-01T13:09:31.061Z,98458.66
2023-05-01T13:11:36.193Z,98463.84
2023-05-01T13:13:41.507Z,98469.38
2023-05-01T13:15:46.621Z,98463.41
2023-05-01T13:17:52.068Z,98468.91
2023-05-01T13:19:58.581Z,98459.50
2023-05-01T13:22:08.578Z,98465.13
2023-05-01T13:24:13.617Z,98455.47
2023-05-01T13:26:18.713Z,98455.44
2023-05-01T13:28:23.735Z,98462.63
2023-05-01T13:30:36.203Z,98456.72
2023-05-01T13:32:44.032Z,98458.94
2023-05-01T13:34:49.113Z,98463.63
2023-05-01T13:36:54.462Z,98453.28
2023-05-01T13:39:02.074Z,98457.09
2023-05-01T13:41:07.672Z,98457.94
2023-05-01T13:43:17.911Z,98451.78
2023-05-01T13:45:23.868Z,98449.88
2023-05-01T13:47:30.017Z,98451.94
2023-05-01T13:49:35.066Z,98450.50
2023-05-01T13:51:44.448Z,98449.00
2023-05-01T13:53:50.387Z,98445.19
2023-05-01T13:55:58.034Z,98446.50
2023-05-01T13:58:04.728Z,98444.13
2023-05-01T14:00:13.079Z,98438.72
2023-05-01T14:02:24.371Z,98433.81
2023-05-01T14:04:29.969Z,98422.00
2023-05-01T14:06:39.294Z,98429.56
2023-05-01T14:08:44.721Z,98424.88
2023-05-01T14:10:49.754Z,98424.38
2023-05-01T14:12:59.504Z,98418.25
2023-05-01T14:15:05.313Z,98418.50
2023-05-01T14:17:10.926Z,98414.81
2023-05-01T14:19:19.178Z,98414.22
2023-05-01T14:21:27.368Z,98406.63
2023-05-01T14:23:35.290Z,98412.56
2023-05-01T14:25:40.865Z,98409.22
2023-05-01T14:27:46.827Z,98412.25
2023-05-01T14:29:55.170Z,98411.13
2023-05-01T14:32:06.668Z,98409.31
2023-05-01T14:34:12.048Z,98409.44
2023-05-01T14:36:17.216Z,98415.94
2023-05-01T14:38:24.207Z,98396.44
2023-05-01T14:40:30.675Z,98405.88
2023-05-01T14:42:37.253Z,98400.25
2023-05-01T14:44:45.065Z,98405.63
2023-05-01T14:46:53.616Z,98404.31
2023-05-01T14:48:59.479Z,98404.00
2023-05-01T14:51:06.660Z,98412.91
2023-05-01T14:53:12.062Z,98406.03
2023-05-01T14:55:21.343Z,98398.91
2023-05-01T14:57:28.629Z,98404.19
2023-05-01T14:59:34.443Z,98404.38
2023-05-01T15:01:39.723Z,98409.25
2023-05-01T15:03:47.944Z,98409.44
2023-05-01T15:05:53.653Z,98418.69
2023-05-01T15:08:00.575Z,98413.53
2023-05-01T15:10:06.157Z,98407.31
2023-05-01T15:12:11.659Z,98407.03
2023-05-01T15:14:16.805Z,98409.97
2023-05-01T15:16:21.996Z,98401.69
2023-05-01T15:18:27.443Z,98398.28
2023-05-01T15:20:36.106Z,98390.22
2023-05-01T15:22:41.411Z,98396.50
2023-05-01T15:24:46.704Z,98390.28
2023-05-01T15:26:51.749Z,98389.97
2023-05-01T15:28:57.218Z,98400.84
2023-05-01T15:31:02.556Z,98397.03
2023-05-01T15:33:07.643Z,98401.91
2023-05-01T15:35:13.130Z,98393.97
2023-05-01T15:37:20.865Z,98386.34
2023-05-01T15:39:25.966Z,98380.09
2023-05-01T15:41:31.636Z,98389.78
2023-05-01T15:43:36.701Z,98386.81
2023-05-01T15:45:44.126Z,98376.56
2023-05-01T15:47:49.274Z,98388.78
2023-05-01T15:49:54.339Z,98395.00
2023-05-01T15:51:59.504Z,98388.72
2023-05-01T15:54:08.068Z,98395.66
2023-05-01T15:56:13.551Z,98385.38
2023-05-01T15:58:19.156Z,98385.06
2023-05-01T16:00:26.050Z,98382.66
2023-05-01T16:02:34.505Z,98381.16
2023-05-01T16:04:40.180Z,98387.13
2023-05-01T16:06:45.621Z,98382.16
2023-05-01T16:08:51.025Z,98382.72
2023-05-01T16:10:58.866Z,98379.97
2023-05-01T16:13:03.924Z,98384.84
2023-05-01T16:15:10.775Z,98391.75
2023-05-01T16:17:16.094Z,98386.31
2023-05-01T16:19:21.649Z,98392.09
2023-05-01T16:21:27.561Z,98386.22
2023-05-01T16:23:32.598Z,98396.31
2023-05-01T16:25:37.897Z,98401.16
2023-05-01T16:27:47.653Z,98408.09
2023-05-01T16:29:53.358Z,98404.25
2023-05-01T16:31:58.771Z,98407.63
2023-05-01T16:34:03.866Z,98416.34
2023-05-01T16:36:11.829Z,98414.75
2023-05-01T16:38:17.256Z,98414.88
2023-05-01T16:40:24.332Z,98413.16
2023-05-01T16:42:29.517Z,98421.50
2023-05-01T16:44:39.244Z,98427.00
2023-05-01T16:46:45.449Z,98420.31
2023-05-01T16:48:50.532Z,98414.19
2023-05-01T16:50:56.049Z,98418.66
2023-05-01T16:53:01.122Z,98416.97
2023-05-01T16:55:06.551Z,98427.53
2023-05-01T16:57:11.775Z,98424.03
2023-05-01T16:59:17.087Z,98428.84
2023-05-01T17:01:24.748Z,98428.34
2023-05-01T17:03:30.818Z,98430.72
2023-05-01T17:05:35.924Z,98437.53
2023-05-01T17:07:41.275Z,98430.72
2023-05-01T17:09:46.303Z,98435.63
2023-05-01T17:11:51.304Z,98439.19
2023-05-01T17:13:56.313Z,98432.78
2023-05-01T17:16:01.493Z,98432.50
2023-05-01T17:18:09.149Z,98434.69
2023-05-01T17:20:16.577Z,98440.44
2023-05-01T17:22:21.685Z,98440.59
2023-05-01T17:24:27.075Z,98441.91
2023-05-01T17:26:32.088Z,98447.41
2023-05-01T17:28:37.114Z,98446.59
2023-05-01T17:30:42.121Z,98446.94
2023-05-01T17:32:47.290Z,98441.63
2023-05-01T17:34:55.019Z,98442.31
2023-05-01T17:37:00.041Z,98452.06
2023-05-01T17:39:05.157Z,98451.69
2023-05-01T17:41:10.195Z,98451.34
2023-05-01T17:43:15.194Z,98461.19
2023-05-01T17:45:20.597Z,98453.81
2023-05-01T17:47:26.405Z,98461.03
2023-05-01T17:49:33.040Z,98463.94
2023-05-01T17:51:40.777Z,98469.03
2023-05-01T17:53:46.131Z,98467.78
2023-05-01T17:55:51.124Z,98467.34
2023-05-01T17:57:57.045Z,98477.16
2023-05-01T18:00:03.262Z,98486.13
2023-05-01T18:02:17.330Z,98476.44
2023-05-01T18:04:22.902Z,98480.88
2023-05-01T18:06:28.288Z,98476.34
2023-05-01T18:08:37.408Z,98482.09
2023-05-01T18:10:42.453Z,98484.09
2023-05-01T18:12:49.980Z,98486.94
2023-05-01T18:14:55.602Z,98485.69
2023-05-01T18:17:00.682Z,98484.03
2023-05-01T18:19:07.546Z,98493.63
2023-05-01T18:21:12.932Z,98498.56
2023-05-01T18:23:18.971Z,98496.09
2023-05-01T18:25:26.865Z,98497.22
2023-05-01T18:27:32.235Z,98497.38
2023-05-01T18:29:38.789Z,98492.31
2023-05-01T18:31:43.942Z,98501.91
2023-05-01T18:33:49.272Z,98499.59
2023-05-01T18:35:54.338Z,98500.03
2023-05-01T18:38:00.421Z,98497.28
2023-05-01T18:40:06.843Z,98505.66
2023-05-01T18:42:14.720Z,98505.75
2023-05-01T18:44:21.328Z,98507.19
2023-05-01T18:46:26.624Z,98501.25
2023-05-01T18:48:33.039Z,98505.50
2023-05-01T18:50:38.869Z,98507.25
2023-05-01T18:52:44.534Z,98507.63
2023-05-01T18:54:50.629Z,98506.19
2023-05-01T18:56:55.684Z,98513.13
2023-05-01T18:59:04.623Z,98517.34
2023-05-01T19:01:10.675Z,98518.09
2023-05-01T19:03:16.199Z,98525.91
2023-05-01T19:05:22.936Z,98524.44
2023-05-01T19:07:28.296Z,98532.97
2023-05-01T19:09:34.553Z,98526.56
2023-05-01T19:11:40.240Z,98532.59
2023-05-01T19:13:45.442Z,98535.41
2023-05-01T19:15:54.157Z,98543.75
2023-05-01T19:17:59.211Z,98543.75
2023-05-01T19:20:05.860Z,98542.13
2023-05-01T19:22:11.184Z,98547.19
2023-05-01T19:24:16.430Z,98549.72
2023-05-01T19:26:22.137Z,98548.25
2023-05-01T19:28:27.192Z,98554.41
2023-05-01T19:30:32.868Z,98557.56
2023-05-01T19:32:41.002Z,98557.56
2023-05-01T19:34:47.428Z,98555.78
2023-05-01T19:36:56.658Z,98561.75
2023-05-01T19:39:01.758Z,98560.09
2023-05-01T19:41:08.094Z,98568.84
2023-05-01T19:43:13.487Z,98569.72
2023-05-01T19:45:20.083Z,98568.09
2023-05-01T19:47:25.167Z,98574.94
2023-05-01T19:49:32.852Z,98577.47
2023-05-01T19:51:37.955Z,98579.28
2023-05-01T19:53:43.441Z,98582.78
2023-05-01T19:55:50.332Z,98587.06
2023-05-01T19:57:55.721Z,98592.28
2023-05-01T20:00:01.357Z,98593.22
2023-05-01T20:02:07.209Z,98594.94
2023-05-01T20:04:13.094Z,98590.88
2023-05-01T20:06:20.755Z,98601.81
2023-05-01T20:08:25.791Z,98601.00
2023-05-01T20:10:31.396Z,98602.63
2023-05-01T20:12:37.200Z,98617.72
2023-05-01T20:14:42.799Z,98618.78
2023-05-01T20:16:49.176Z,98615.56
2023-05-01T20:18:54.301Z,98617.38
2023-05-01T20:20:59.328Z,98617.50
2023-05-01T20:23:18.993Z,98625.41
2023-05-01T20:25:24.651Z,98622.25
2023-05-01T20:27:29.904Z,98622.34
2023-05-01T20:29:34.953Z,98624.19
2023-05-01T20:31:40.273Z,98631.81
2023-05-01T20:33:45.711Z,98631.16
2023-05-01T20:35:51.395Z,98632.81
2023-05-01T20:37:56.402Z,98633.88
2023-05-01T20:40:04.442Z,98643.28
2023-05-01T20:42:09.774Z,98651.03
2023-05-01T20:44:14.791Z,98643.69
2023-05-01T20:46:20.707Z,98649.81
2023-05-01T20:48:26.026Z,98651.63
2023-05-01T20:50:31.439Z,98653.34
2023-05-01T20:52:36.989Z,98652.69
2023-05-01T20:54:42.432Z,98650.94
2023-05-01T20:56:50.023Z,98639.28
2023-05-01T20:58:55.195Z,98641.16
2023-05-01T21:01:02.509Z,98644.56
2023-05-01T21:03:09.431Z,98644.56
2023-05-01T21:05:16.423Z,98647.06
2023-05-01T21:07:21.638Z,98645.34
2023-05-01T21:09:27.091Z,98644.69
2023-05-01T21:11:32.087Z,98647.56
2023-05-01T21:13:39.687Z,98658.97
2023-05-01T21:15:45.097Z,98652.66
2023-05-01T21:17:50.409Z,98655.47
2023-05-01T21:19:56.385Z,98651.31
2023-05-01T21:22:01.840Z,98652.41
2023-05-01T21:24:08.619Z,98651.53
2023-05-01T21:26:15.996Z,98651.75
2023-05-01T21:28:21.026Z,98649.59
2023-05-01T21:30:33.759Z,98659.81
2023-05-01T21:32:42.830Z,98658.97
2023-05-01T21:34:48.292Z,98666.00
2023-05-01T21:36:53.322Z,98663.66
2023-05-01T21:38:58.699Z,98655.50
2023-05-01T21:41:04.083Z,98662.25
2023-05-01T21:43:11.576Z,98653.19
2023-05-01T21:45:20.744Z,98665.91
2023-05-01T21:47:29.987Z,98656.81
2023-05-01T21:49:35.133Z,98652.72
2023-05-01T21:51:41.018Z,98661.94
2023-05-01T21:53:46.462Z,98661.94
2023-05-01T21:55:51.580Z,98668.75
2023-05-01T21:57:56.819Z,98673.78
2023-05-01T22:00:04.880Z,98681.38
2023-05-01T22:02:15.053Z,98684.06
2023-05-01T22:04:23.157Z,98681.53
2023-05-01T22:06:29.312Z,98672.25
2023-05-01T22:08:34.499Z,98682.34
2023-05-01T22:10:41.165Z,98687.25
2023-05-01T22:12:48.964Z,98684.19
2023-05-01T22:14:53.971Z,98685.22
2023-05-01T22:16:59.026Z,98685.19
2023-05-01T22:19:04.079Z,98689.22
2023-05-01T22:21:11.729Z,98685.72
2023-05-01T22:23:17.146Z,98692.31
2023-05-01T22:25:22.403Z,98697.25
2023-05-01T22:27:27.536Z,98697.53
2023-05-01T22:29:33.194Z,98695.28
2023-05-01T22:31:38.868Z,98691.94
2023-05-01T22:33:44.310Z,98686.31
2023-05-01T22:35:49.520Z,98694.66
2023-05-01T22:37:57.864Z,98691.53
2023-05-01T22:40:03.755Z,98692.53
2023-05-01T22:42:09.592Z,98693.38
2023-05-01T22:44:14.950Z,98696.16
2023-05-01T22:46:20.015Z,98703.03
2023-05-01T22:48:25.115Z,98710.72
2023-05-01T22:50:30.582Z,98705.84
2023-05-01T22:52:35.872Z,98710.88
2023-05-01T22:54:43.487Z,98717.88
2023-05-01T22:56:50.010Z,98716.22
2023-05-01T22:58:55.598Z,98715.44
2023-05-01T23:01:01.009Z,98720.56
2023-05-01T23:03:07.111Z,98724.66
2023-05-01T23:05:12.749Z,98724.63
2023-05-01T23:07:18.249Z,98723.91
2023-05-01T23:09:24.079Z,98719.84
2023-05-01T23:11:34.708Z,98725.00
2023-05-01T23:13:44.205Z,98724.16
2023-05-01T23:15:50.611Z,98720.03
2023-05-01T23:17:56.162Z,98721.84
2023-05-01T23:20:02.166Z,98722.00
2023-05-01T23:22:10.941Z,98723.66
2023-05-01T23:24:18.701Z,98724.47
2023-05-01T23:26:33.115Z,98727.28
2023-05-01T23:28:42.452Z,98728.22
2023-05-01T23:30:48.016Z,98729.13
2023-05-01T23:32:53.432Z,98732.44
2023-05-01T23:35:04.174Z,98727.41
2023-05-01T23:37:09.330Z,98727.56
2023-05-01T23:39:14.623Z,98732.78
2023-05-01T23:41:19.933Z,98731.38
2023-05-01T23:43:27.651Z,98729.81
2023-05-01T23:45:33.362Z,98730.03
2023-05-01T23:47:39.242Z,98729.38
2023-05-01T23:49:44.357Z,98733.47
2023-05-01T23:51:50.228Z,98734.56
2023-05-01T23:53:55.307Z,98735.34
2023-05-01T23:56:03.806Z,98738.00
2023-05-01T23:58:09.493Z,98728.53
